Time;durP1;ratioP1;P1;durP2;ratioP2;P2;SDS_P1;SDS_P2;PMS_P1;PMS_P2;Temp;Humidity;BMP_temperature;BMP_pressure;BME280_temperature;BME280_humidity;BME280_pressure;Samples;Min_cycle;Max_cycle;Signal;HPM_P1;HPM_P2
2023/09/29 00:01:42;;;;;;;5.73;3.80;;;;;;;19.19;100.00;99927.75;12197246;19;20727;-81
2023/09/29 00:05:44;;;;;;;7.38;3.90;;;;;;;19.09;100.00;99918.38;12193435;19;20028;-81
2023/09/29 00:09:47;;;;;;;7.90;4.13;;;;;;;19.03;100.00;99927.97;12180962;19;20026;-81
2023/09/29 00:13:49;;;;;;;7.43;4.03;;;;;;;18.97;100.00;99934.75;12244234;19;20017;-80
2023/09/29 00:17:51;;;;;;;10.70;3.55;;;;;;;18.96;100.00;99933.13;12249368;19;19995;-80
2023/09/29 00:21:53;;;;;;;6.88;3.40;;;;;;;18.97;100.00;99926.38;12226823;19;20002;-80
2023/09/29 00:25:56;;;;;;;7.63;3.92;;;;;;;18.96;100.00;99927.53;12241799;19;19999;-80
2023/09/29 00:29:57;;;;;;;7.65;4.05;;;;;;;18.98;100.00;99922.47;12225648;19;20007;-80
2023/09/29 00:33:59;;;;;;;6.55;3.50;;;;;;;19.00;100.00;99938.91;12247540;19;20002;-80
2023/09/29 00:38:01;;;;;;;10.73;4.18;;;;;;;19.03;100.00;99941.09;12243209;19;20011;-80
2023/09/29 00:42:06;;;;;;;7.93;3.92;;;;;;;19.02;100.00;99939.47;12217507;19;20014;-81
2023/09/29 00:46:08;;;;;;;6.57;3.67;;;;;;;19.00;100.00;99924.97;12226665;19;20002;-80
2023/09/29 00:50:11;;;;;;;5.95;3.70;;;;;;;18.96;100.00;99935.09;12215761;19;20006;-81
2023/09/29 00:54:14;;;;;;;5.22;3.63;;;;;;;18.87;100.00;99932.97;12197773;19;20002;-81
2023/09/29 00:58:17;;;;;;;7.47;3.80;;;;;;;18.73;100.00;99925.63;12212524;19;20467;-81
2023/09/29 01:02:20;;;;;;;6.03;3.17;;;;;;;18.62;100.00;99933.28;12211982;19;20006;-81
2023/09/29 01:06:23;;;;;;;8.70;4.43;;;;;;;18.57;100.00;99919.44;12164259;19;20018;-81
2023/09/29 01:10:25;;;;;;;9.10;4.03;;;;;;;18.52;100.00;99914.72;12208178;19;20007;-81
2023/09/29 01:14:27;;;;;;;11.20;4.32;;;;;;;18.50;100.00;99913.38;12216232;19;20011;-82
2023/09/29 01:18:29;;;;;;;5.53;3.70;;;;;;;18.48;100.00;99905.31;12190199;19;20042;-81
2023/09/29 01:22:31;;;;;;;6.93;3.90;;;;;;;18.48;100.00;99902.53;12210081;19;20018;-82
2023/09/29 01:26:33;;;;;;;8.27;3.87;;;;;;;18.43;100.00;99903.41;12208707;19;20015;-81
2023/09/29 01:30:36;;;;;;;8.18;3.95;;;;;;;18.43;100.00;99909.00;12195910;19;20260;-82
2023/09/29 01:34:38;;;;;;;9.32;4.18;;;;;;;18.39;100.00;99926.66;12215616;19;20006;-81
2023/09/29 01:38:40;;;;;;;8.07;3.67;;;;;;;18.34;100.00;99924.75;12217449;19;20010;-81
2023/09/29 01:42:43;;;;;;;7.63;4.38;;;;;;;18.30;100.00;99918.09;12179623;19;20024;-81
2023/09/29 01:46:49;;;;;;;6.72;3.70;;;;;;;18.25;100.00;99925.72;12194630;19;20132;-81
2023/09/29 01:50:51;;;;;;;8.75;4.47;;;;;;;18.17;100.00;99938.34;12190460;19;20057;-81
2023/09/29 01:54:57;;;;;;;9.55;4.85;;;;;;;18.08;100.00;99945.69;12176879;19;20007;-81
2023/09/29 01:59:01;;;;;;;8.00;3.67;;;;;;;17.99;100.00;99934.38;12207609;19;20639;-81
2023/09/29 02:03:06;;;;;;;5.72;3.88;;;;;;;17.92;100.00;99931.94;12184764;19;20015;-81
2023/09/29 02:07:09;;;;;;;9.80;4.47;;;;;;;17.90;100.00;99925.81;12178441;19;20015;-81
2023/09/29 02:11:10;;;;;;;7.15;3.85;;;;;;;17.87;100.00;99928.38;12201029;19;20034;-81
2023/09/29 02:15:16;;;;;;;6.93;4.00;;;;;;;17.82;100.00;99912.56;12183517;19;20518;-81
2023/09/29 02:19:18;;;;;;;10.18;4.90;;;;;;;17.77;100.00;99913.41;12202778;19;20021;-81
2023/09/29 02:23:22;;;;;;;14.45;5.32;;;;;;;17.71;100.00;99914.56;12202180;19;19999;-81
2023/09/29 02:27:24;;;;;;;7.57;5.30;;;;;;;17.69;100.00;99902.88;12173024;19;20010;-81
2023/09/29 02:31:27;;;;;;;9.48;5.13;;;;;;;17.68;100.00;99901.22;12203730;19;20498;-81
2023/09/29 02:35:28;;;;;;;8.63;5.38;;;;;;;17.72;100.00;99902.28;12211387;19;20042;-81
2023/09/29 02:39:30;;;;;;;10.95;6.18;;;;;;;17.76;100.00;99906.16;12194350;19;20288;-81
2023/09/29 02:43:32;;;;;;;8.10;5.20;;;;;;;17.83;100.00;99907.81;12214034;19;20006;-81
2023/09/29 02:47:41;;;;;;;8.95;4.68;;;;;;;17.89;100.00;99913.00;12212135;19;20019;-81
2023/09/29 02:51:43;;;;;;;9.80;5.53;;;;;;;17.98;100.00;99929.94;12193156;19;20006;-81
2023/09/29 02:55:45;;;;;;;9.35;4.57;;;;;;;18.01;100.00;99934.09;12211591;19;20041;-81
2023/09/29 02:59:47;;;;;;;9.02;5.07;;;;;;;18.02;100.00;99941.31;12215252;19;20473;-81
2023/09/29 03:03:49;;;;;;;8.98;5.10;;;;;;;18.06;100.00;99939.59;12191865;19;20783;-81
2023/09/29 03:07:51;;;;;;;10.20;5.50;;;;;;;18.10;100.00;99941.50;12214662;19;20007;-81
2023/09/29 03:11:59;;;;;;;8.77;4.75;;;;;;;18.13;100.00;99940.91;12187832;19;20038;-81
2023/09/29 03:16:02;;;;;;;7.70;4.57;;;;;;;18.16;100.00;99945.88;12211208;19;20626;-81
2023/09/29 03:20:09;;;;;;;9.35;4.72;;;;;;;18.20;100.00;99935.81;12208726;19;20078;-80
2023/09/29 03:24:11;;;;;;;7.57;5.00;;;;;;;18.22;100.00;99933.53;12183926;19;20015;-80
2023/09/29 03:28:12;;;;;;;11.32;5.32;;;;;;;18.25;100.00;99932.13;12208851;19;20007;-80
2023/09/29 03:32:14;;;;;;;10.45;4.35;;;;;;;18.27;100.00;99929.03;12205295;19;20427;-81
2023/09/29 03:36:20;;;;;;;8.68;5.22;;;;;;;18.31;100.00;99930.09;12184442;19;20055;-80
2023/09/29 03:40:22;;;;;;;8.48;5.10;;;;;;;18.32;100.00;99923.38;12206960;19;20014;-81
2023/09/29 03:44:23;;;;;;;8.77;5.72;;;;;;;18.34;100.00;99921.13;12205450;19;20396;-81
2023/09/29 03:48:25;;;;;;;10.70;5.47;;;;;;;18.34;100.00;99919.16;12183005;19;20032;-81
2023/09/29 03:52:29;;;;;;;9.23;5.47;;;;;;;18.39;100.00;99918.28;12206148;19;20116;-81
2023/09/29 03:56:31;;;;;;;10.55;5.35;;;;;;;18.41;100.00;99921.56;12205087;19;20044;-80
2023/09/29 04:00:33;;;;;;;12.57;6.43;;;;;;;18.41;100.00;99918.78;12185204;19;20362;-80
2023/09/29 04:04:35;;;;;;;9.57;5.80;;;;;;;18.41;100.00;99921.56;12202786;19;20018;-81
2023/09/29 04:08:38;;;;;;;9.13;6.28;;;;;;;18.41;100.00;99924.38;12202754;19;20019;-80
2023/09/29 04:12:47;;;;;;;11.40;5.15;;;;;;;18.43;100.00;99924.91;12196483;19;20006;-81
2023/09/29 04:16:48;;;;;;;8.48;5.35;;;;;;;18.45;100.00;99926.28;12207861;19;20052;-81
2023/09/29 04:20:50;;;;;;;8.23;5.00;;;;;;;18.49;100.00;99936.84;12205617;19;20006;-81
2023/09/29 04:24:52;;;;;;;7.80;5.17;;;;;;;18.49;100.00;99937.66;12183325;19;21753;-80
2023/09/29 04:28:54;;;;;;;11.98;6.05;;;;;;;18.51;100.00;99940.16;12203729;19;20082;-81
2023/09/29 04:32:56;;;;;;;10.68;5.97;;;;;;;18.50;100.00;99939.34;12182778;19;20041;-81
2023/09/29 04:36:58;;;;;;;7.97;5.57;;;;;;;18.60;100.00;99930.00;12205020;19;20015;-81
2023/09/29 04:41:00;;;;;;;8.47;5.03;;;;;;;18.65;100.00;99929.94;12203037;19;20030;-83
2023/09/29 04:45:03;;;;;;;10.77;5.37;;;;;;;18.65;100.00;99930.75;12182499;19;20080;-80
2023/09/29 04:49:07;;;;;;;10.05;4.90;;;;;;;18.68;100.00;99932.94;12201981;19;20018;-80
2023/09/29 04:53:09;;;;;;;10.52;5.65;;;;;;;18.70;100.00;99927.03;12203419;19;20011;-81
2023/09/29 04:57:10;;;;;;;9.50;4.93;;;;;;;18.72;100.00;99924.78;12179908;19;20018;-80
2023/09/29 05:01:17;;;;;;;9.65;6.07;;;;;;;18.70;100.00;99923.44;12199700;19;20704;-80
2023/09/29 05:05:19;;;;;;;10.48;5.82;;;;;;;18.69;100.00;99925.38;12203558;19;20019;-80
2023/09/29 05:09:21;;;;;;;5.75;4.10;;;;;;;18.68;100.00;99930.16;12191944;19;20021;-81
2023/09/29 05:13:22;;;;;;;8.67;4.77;;;;;;;18.68;100.00;99930.16;12201531;19;20007;-81
2023/09/29 05:17:27;;;;;;;10.00;5.47;;;;;;;18.71;100.00;99917.56;12203009;19;20002;-81
2023/09/29 05:21:48;;;;;;;7.07;4.97;;;;;;;18.70;100.00;99915.06;12184927;19;20592;-81
2023/09/29 05:25:50;;;;;;;8.25;4.60;;;;;;;18.67;100.00;99917.31;12198536;19;20006;-80
2023/09/29 05:29:52;;;;;;;7.10;4.40;;;;;;;18.67;100.00;99920.09;12205788;19;20093;-81
2023/09/29 05:33:54;;;;;;;8.45;4.97;;;;;;;18.69;100.00;99917.03;12176737;19;20029;-81
2023/09/29 05:37:56;;;;;;;8.37;4.40;;;;;;;18.70;100.00;99917.84;12208296;19;20035;-81
2023/09/29 05:41:58;;;;;;;10.00;4.80;;;;;;;18.66;100.00;99929.63;12193905;19;20019;-81
2023/09/29 05:46:00;;;;;;;7.43;5.15;;;;;;;18.65;100.00;99938.31;12210832;19;20255;-81
2023/09/29 05:50:01;;;;;;;7.70;5.00;;;;;;;18.63;100.00;99944.16;12201975;19;20011;-81
2023/09/29 05:54:19;;;;;;;9.35;6.03;;;;;;;18.63;100.00;99941.38;12184165;19;20482;-81
2023/09/29 05:58:22;;;;;;;9.30;5.10;;;;;;;18.60;100.00;99946.72;12200673;19;20018;-81
2023/09/29 06:02:24;;;;;;;11.45;5.60;;;;;;;18.58;100.00;99952.59;12200038;19;20251;-81
2023/09/29 06:06:25;;;;;;;14.15;5.90;;;;;;;18.59;100.00;99957.06;12175145;19;20505;-81
2023/09/29 06:10:27;;;;;;;13.02;5.43;;;;;;;18.57;100.00;99944.53;12187596;19;20010;-81
2023/09/29 06:14:32;;;;;;;9.00;4.90;;;;;;;18.58;100.00;99924.69;12209170;19;20011;-81
2023/09/29 06:18:34;;;;;;;10.63;5.68;;;;;;;18.59;100.00;99931.09;12181777;19;20018;-81
2023/09/29 06:22:37;;;;;;;7.68;4.72;;;;;;;18.58;100.00;99930.28;12209894;19;19999;-81
2023/09/29 06:26:38;;;;;;;10.40;5.10;;;;;;;18.54;100.00;99933.97;12210050;19;20027;-81
2023/09/29 06:30:40;;;;;;;10.80;5.43;;;;;;;18.50;100.00;99938.47;12188136;19;20024;-81
2023/09/29 06:34:42;;;;;;;10.07;5.07;;;;;;;18.45;100.00;99944.97;12210297;19;20372;-81
2023/09/29 06:38:44;;;;;;;14.30;5.60;;;;;;;18.50;100.00;99953.28;12210872;19;20009;-81
2023/09/29 06:42:46;;;;;;;6.47;4.10;;;;;;;18.62;100.00;99956.47;12187902;19;20006;-81
2023/09/29 06:46:48;;;;;;;13.57;5.23;;;;;;;18.73;100.00;99950.75;12212660;19;20011;-81
2023/09/29 06:50:50;;;;;;;11.40;4.88;;;;;;;18.80;100.00;99976.34;12215380;19;20255;-81
2023/09/29 06:54:51;;;;;;;10.02;5.50;;;;;;;18.80;100.00;99971.59;12189420;19;20062;-81
2023/09/29 06:58:54;;;;;;;8.43;5.17;;;;;;;18.84;100.00;99974.63;12208056;19;20007;-81
2023/09/29 07:02:56;;;;;;;7.93;5.18;;;;;;;19.02;100.00;99976.59;12188132;19;20358;-81
2023/09/29 07:06:58;;;;;;;7.77;5.57;;;;;;;19.37;100.00;99954.00;12205166;19;20492;-81
2023/09/29 07:11:00;;;;;;;8.53;5.93;;;;;;;19.68;100.00;99951.50;12207757;19;20002;-81
2023/09/29 07:15:03;;;;;;;9.43;5.63;;;;;;;19.94;100.00;99947.09;12186035;19;20017;-81
2023/09/29 07:19:05;;;;;;;10.35;5.47;;;;;;;20.23;100.00;99948.78;12210772;19;20006;-81
2023/09/29 07:23:08;;;;;;;10.57;5.83;;;;;;;20.33;100.00;99950.53;12217231;19;20497;-80
2023/09/29 07:27:12;;;;;;;11.13;5.85;;;;;;;20.34;100.00;99957.78;12195009;19;20010;-81
2023/09/29 07:31:13;;;;;;;8.13;5.38;;;;;;;20.34;100.00;99947.41;12214456;19;20047;-81
2023/09/29 07:35:15;;;;;;;10.53;5.83;;;;;;;20.43;100.00;99934.34;12215470;19;20018;-81
2023/09/29 07:39:18;;;;;;;10.97;5.90;;;;;;;20.60;100.00;99932.91;12198135;19;20010;-81
2023/09/29 07:43:20;;;;;;;9.90;5.20;;;;;;;20.75;100.00;99923.34;12214104;19;20003;-80
2023/09/29 07:47:21;;;;;;;9.90;5.57;;;;;;;20.84;100.00;99927.88;12215970;19;20013;-80
2023/09/29 07:51:25;;;;;;;9.67;5.87;;;;;;;20.99;100.00;99923.06;12189570;19;20014;-81
2023/09/29 07:55:26;;;;;;;8.63;4.95;;;;;;;21.11;100.00;99934.53;12214009;19;20018;-81
2023/09/29 07:59:28;;;;;;;7.40;4.87;;;;;;;21.03;100.00;99932.47;12213005;19;20010;-81
2023/09/29 08:03:30;;;;;;;8.43;4.75;;;;;;;20.85;100.00;99932.34;12194577;19;20003;-81
2023/09/29 08:07:32;;;;;;;8.23;4.90;;;;;;;20.69;100.00;99919.84;12211870;19;20089;-81
2023/09/29 08:11:34;;;;;;;10.47;5.90;;;;;;;20.57;100.00;99911.16;12213977;19;20007;-81
2023/09/29 08:15:35;;;;;;;8.70;5.10;;;;;;;20.46;100.00;99924.50;12209385;19;20022;-81
2023/09/29 08:19:37;;;;;;;7.45;4.50;;;;;;;20.80;100.00;99929.66;12218674;19;20359;-81
2023/09/29 08:23:39;;;;;;;9.00;4.87;;;;;;;21.68;100.00;99934.78;12218458;19;20017;-81
2023/09/29 08:27:42;;;;;;;6.30;4.10;;;;;;;22.60;100.00;99934.19;12190404;19;20314;-80
2023/09/29 08:31:43;;;;;;;;;;;;;;;22.96;95.24;99939.56;12214626;19;20007;-81
2023/09/29 08:35:45;;;;;;;8.02;4.70;;;;;;;23.08;92.47;99936.94;12211280;19;19943;-81
2023/09/29 08:39:48;;;;;;;8.48;4.72;;;;;;;23.37;92.20;99939.06;12191677;19;20007;-82
2023/09/29 08:43:50;;;;;;;9.77;5.10;;;;;;;23.62;90.88;99930.94;12211530;19;20011;-81
2023/09/29 08:48:11;;;;;;;9.27;4.35;;;;;;;23.82;84.58;99935.03;12196844;19;20006;-81
2023/09/29 08:52:18;;;;;;;6.85;4.13;;;;;;;24.09;81.43;99943.06;12213238;19;20053;-81
2023/09/29 08:56:20;;;;;;;8.15;4.20;;;;;;;24.41;79.02;99945.56;12211898;19;20041;-82
2023/09/29 09:00:23;;;;;;;7.30;4.00;;;;;;;24.56;76.75;99934.53;12187088;19;20516;-81
2023/09/29 09:04:27;;;;;;;9.02;4.28;;;;;;;24.76;71.32;99938.56;12213101;19;20018;-82
2023/09/29 09:08:29;;;;;;;9.73;4.18;;;;;;;24.97;69.75;99944.22;12212704;19;20087;-82
2023/09/29 09:12:35;;;;;;;7.85;3.97;;;;;;;25.11;67.16;99948.78;12187494;19;20016;-81
2023/09/29 09:16:38;;;;;;;8.60;3.80;;;;;;;25.20;65.57;99938.28;12211684;19;20041;-81
2023/09/29 09:20:41;;;;;;;9.18;4.05;;;;;;;25.51;64.53;99931.34;12207756;19;20480;-83
2023/09/29 09:24:44;;;;;;;8.18;3.95;;;;;;;25.76;63.59;99944.38;12192475;19;20068;-82
2023/09/29 09:28:46;;;;;;;9.57;4.38;;;;;;;25.88;64.50;99941.59;12215739;19;20038;-82
2023/09/29 09:32:47;;;;;;;5.97;4.25;;;;;;;26.07;62.43;99937.41;12231174;19;20026;-82
2023/09/29 09:36:52;;;;;;;7.53;3.65;;;;;;;26.44;61.67;99928.91;12203243;19;20009;-83
2023/09/29 09:40:54;;;;;;;6.32;3.80;;;;;;;26.57;59.06;99931.44;12235853;19;20085;-82
2023/09/29 09:44:59;;;;;;;;;;;;;;;26.57;57.41;99919.31;12206072;19;20070;-81
2023/09/29 09:49:08;;;;;;;7.85;3.88;;;;;;;26.63;55.46;99915.06;12225515;19;20670;-79
2023/09/29 09:53:13;;;;;;;7.50;4.55;;;;;;;26.80;56.24;99926.09;12219451;19;20014;-81
2023/09/29 09:57:29;;;;;;;6.57;4.75;;;;;;;26.88;56.53;99931.97;12196162;19;20049;-80
2023/09/29 10:01:31;;;;;;;9.23;4.18;;;;;;;26.64;56.87;99925.19;12215996;19;20576;-83
2023/09/29 10:05:33;;;;;;;9.50;4.03;;;;;;;26.66;56.56;99917.16;12216020;19;20015;-80
2023/09/29 10:09:43;;;;;;;8.38;4.80;;;;;;;26.84;56.04;99925.38;12190488;19;20030;-80
2023/09/29 10:13:47;;;;;;;9.98;3.92;;;;;;;26.93;55.66;99923.25;12213438;19;20473;-81
2023/09/29 10:17:49;;;;;;;7.00;3.90;;;;;;;27.10;56.03;99914.47;12218887;19;20350;-80
2023/09/29 10:21:53;;;;;;;;;;;;;;;27.12;55.43;99914.91;12194463;19;20010;-81
2023/09/29 10:26:00;;;;;;;5.95;3.70;;;;;;;27.20;55.52;99922.47;12224118;19;19918;-80
2023/09/29 10:30:16;;;;;;;7.05;4.25;;;;;;;27.26;54.55;99918.22;12204208;19;20006;-81
2023/09/29 10:34:21;;;;;;;7.78;4.28;;;;;;;27.37;54.20;99914.88;12221024;19;20011;-81
2023/09/29 10:38:24;;;;;;;7.28;4.45;;;;;;;27.59;54.49;99916.28;12221681;19;20010;-79
2023/09/29 10:42:38;;;;;;;8.82;4.65;;;;;;;27.75;53.81;99924.81;12196346;19;20013;-80
2023/09/29 10:46:49;;;;;;;5.85;3.85;;;;;;;27.99;54.73;99910.53;12222853;19;20531;-80
2023/09/29 10:50:51;;;;;;;8.73;3.92;;;;;;;27.96;54.14;99914.06;12224261;19;20011;-80
2023/09/29 10:54:56;;;;;;;;;;;;;;;28.07;53.91;99900.19;12194198;19;20011;-78
2023/09/29 10:58:59;;;;;;;8.05;4.28;;;;;;;28.31;53.18;99900.00;12218829;19;20008;-78
2023/09/29 11:03:02;;;;;;;8.10;4.90;;;;;;;28.55;53.07;99909.50;12194081;19;20006;-79
2023/09/29 11:07:04;;;;;;;7.93;4.53;;;;;;;28.66;52.07;99904.09;12211961;19;20032;-79
2023/09/29 11:11:06;;;;;;;8.75;4.18;;;;;;;28.76;52.94;99895.00;12211909;19;20006;-79
2023/09/29 11:15:08;;;;;;;5.97;4.20;;;;;;;28.82;52.73;99891.53;12192557;19;20007;-80
2023/09/29 11:19:15;;;;;;;7.05;4.10;;;;;;;28.77;53.36;99890.97;12214870;19;20493;-80
2023/09/29 11:23:17;;;;;;;5.85;3.67;;;;;;;28.92;52.85;99886.44;12208156;19;20006;-80
2023/09/29 11:27:19;;;;;;;10.38;5.03;;;;;;;29.42;52.37;99879.81;12190806;19;20018;-80
2023/09/29 11:31:24;;;;;;;7.63;3.90;;;;;;;29.72;51.50;99885.69;12214396;19;20052;-81
2023/09/29 11:35:28;;;;;;;8.52;4.65;;;;;;;30.06;48.27;99890.75;12214013;19;20014;-80
2023/09/29 11:39:30;;;;;;;5.88;4.18;;;;;;;29.95;49.37;99891.38;12180215;19;20013;-79
2023/09/29 11:43:33;;;;;;;7.45;4.00;;;;;;;29.51;49.82;99888.91;12212705;19;20013;-80
2023/09/29 11:47:42;;;;;;;6.50;4.28;;;;;;;29.46;50.56;99886.38;12210593;19;20006;-79
2023/09/29 11:51:44;;;;;;;9.65;4.22;;;;;;;29.23;51.17;99886.31;12184481;19;20011;-80
2023/09/29 11:55:46;;;;;;;8.75;4.38;;;;;;;29.01;52.15;99893.53;12206198;19;20007;-79
2023/09/29 11:59:48;;;;;;;6.18;4.10;;;;;;;28.74;53.12;99889.72;12211533;19;20006;-80
2023/09/29 12:03:50;;;;;;;5.63;3.63;;;;;;;28.96;52.22;99881.66;12190165;19;20023;-79
2023/09/29 12:07:53;;;;;;;;;;;;;;;29.34;51.87;99894.25;12216412;19;20011;-80
2023/09/29 12:11:55;;;;;;;8.98;2.90;;;;;;;29.70;50.08;99892.94;12204450;19;19914;-80
2023/09/29 12:15:57;;;;;;;9.30;3.38;;;;;;;29.13;50.51;99900.31;12213805;19;20014;-79
2023/09/29 12:19:59;;;;;;;5.18;2.85;;;;;;;29.06;50.23;99895.28;12210467;19;20376;-78
2023/09/29 12:24:00;;;;;;;5.38;3.33;;;;;;;29.25;50.53;99903.00;12204560;19;20014;-81
2023/09/29 12:28:04;;;;;;;;;;;;;;;29.81;49.51;99901.69;12198335;19;20006;-83
2023/09/29 12:32:06;;;;;;;9.95;2.92;;;;;;;30.02;46.85;99912.59;12214141;19;19911;-79
2023/09/29 12:36:08;;;;;;;5.95;3.10;;;;;;;29.55;47.77;99916.56;12208363;19;20022;-80
2023/09/29 12:40:11;;;;;;;6.65;2.80;;;;;;;28.95;48.48;99912.06;12191339;19;21013;-79
2023/09/29 12:44:13;;;;;;;6.72;3.30;;;;;;;28.67;49.77;99922.72;12208585;19;20082;-81
2023/09/29 12:48:15;;;;;;;5.65;3.10;;;;;;;28.22;50.95;99919.19;12189002;19;20009;-80
2023/09/29 12:52:17;;;;;;;5.55;2.80;;;;;;;28.18;51.72;99930.44;12210569;19;20007;-79
2023/09/29 12:56:19;;;;;;;;;;;;;;;27.94;53.88;99930.63;12210821;19;20007;-81
2023/09/29 13:00:22;;;;;;;7.27;2.83;;;;;;;27.88;55.20;99943.41;12191185;19;20004;-84
2023/09/29 13:04:28;;;;;;;5.65;2.90;;;;;;;27.43;56.98;99959.53;12211020;19;20010;-82
2023/09/29 13:08:33;;;;;;;6.22;2.85;;;;;;;26.91;60.48;99962.34;12208531;19;20006;-78
2023/09/29 13:12:35;;;;;;;6.32;3.35;;;;;;;26.27;63.33;99984.50;12190763;19;19999;-81
2023/09/29 13:16:37;;;;;;;9.88;3.90;;;;;;;25.54;67.40;99996.34;12209938;19;20018;-82
2023/09/29 13:20:41;;;;;;;8.40;4.90;;;;;;;25.07;70.44;99999.38;12209234;19;20006;-79
2023/09/29 13:24:43;;;;;;;8.60;4.85;;;;;;;24.59;72.87;100011.94;12178909;19;20003;-79
2023/09/29 13:28:45;;;;;;;10.10;4.88;;;;;;;24.26;74.67;100022.97;12201984;19;20011;-79
2023/09/29 13:32:47;;;;;;;8.55;4.30;;;;;;;24.05;75.75;100029.31;12202320;19;20003;-79
2023/09/29 13:36:49;;;;;;;12.75;4.95;;;;;;;23.79;77.50;100051.88;12183802;19;20006;-83
2023/09/29 13:40:52;;;;;;;13.27;4.50;;;;;;;23.69;77.06;100051.38;12201762;19;20477;-78
2023/09/29 13:44:55;;;;;;;14.52;5.22;;;;;;;23.57;75.51;100055.69;12206685;19;20011;-77
2023/09/29 13:48:57;;;;;;;13.95;6.10;;;;;;;23.55;74.88;100055.16;12177167;19;20014;-79
2023/09/29 13:52:58;;;;;;;17.73;6.97;;;;;;;23.71;73.43;100054.69;12198766;19;20007;-78
2023/09/29 13:57:03;;;;;;;13.83;6.43;;;;;;;23.88;72.08;100065.94;12199547;19;20805;-79
2023/09/29 14:01:12;;;;;;;15.57;6.72;;;;;;;23.95;71.64;100060.66;12174776;19;20110;-79
2023/09/29 14:05:14;;;;;;;14.13;6.95;;;;;;;23.98;70.71;100064.78;12200137;19;20061;-78
2023/09/29 14:09:16;;;;;;;17.33;7.10;;;;;;;23.93;71.95;100064.97;12180084;19;20010;-79
2023/09/29 14:13:18;;;;;;;;;;;;;;;23.84;72.16;100071.41;12200251;19;20446;-78
2023/09/29 14:17:20;;;;;;;22.83;8.23;;;;;;;23.81;71.56;100076.88;12206722;19;19937;-78
2023/09/29 14:21:22;;;;;;;16.40;6.90;;;;;;;23.90;72.01;100077.69;12177462;19;20010;-78
2023/09/29 14:25:24;;;;;;;15.55;7.03;;;;;;;24.06;71.13;100072.38;12193269;19;20006;-78
2023/09/29 14:29:25;;;;;;;18.00;7.10;;;;;;;24.18;70.84;100075.31;12208462;19;20003;-78
2023/09/29 14:33:27;;;;;;;17.50;7.60;;;;;;;24.27;69.64;100089.38;12188585;19;20007;-78
2023/09/29 14:37:29;;;;;;;22.05;8.00;;;;;;;24.32;69.42;100080.75;12212146;19;20010;-79
2023/09/29 14:41:32;;;;;;;23.88;8.57;;;;;;;24.29;68.96;100081.44;12211338;19;20386;-78
2023/09/29 14:45:34;;;;;;;23.70;8.93;;;;;;;24.34;68.29;100084.91;12188768;19;20007;-78
2023/09/29 14:49:35;;;;;;;19.13;8.90;;;;;;;24.36;67.97;100081.72;12208308;19;20583;-79
2023/09/29 14:53:38;;;;;;;26.40;10.87;;;;;;;24.27;66.92;100075.31;12211568;19;20006;-78
2023/09/29 14:57:40;;;;;;;27.40;11.15;;;;;;;24.13;66.68;100071.88;12189332;19;20365;-78
2023/09/29 15:01:42;;;;;;;32.80;12.47;;;;;;;23.89;66.31;100067.63;12210311;19;21125;-78
2023/09/29 15:05:44;;;;;;;33.67;12.55;;;;;;;23.78;66.37;100069.09;12208168;19;20854;-78
2023/09/29 15:09:46;;;;;;;36.33;13.13;;;;;;;23.69;64.51;100080.34;12191573;19;20070;-78
2023/09/29 15:13:48;;;;;;;;;;;;;;;23.56;63.97;100076.53;12210219;19;20011;-78
2023/09/29 15:17:50;;;;;;;32.92;14.30;;;;;;;23.56;63.94;100081.34;12212765;19;19914;-78
2023/09/29 15:21:52;;;;;;;36.13;14.35;;;;;;;23.45;64.27;100069.56;12189084;19;20007;-78
2023/09/29 15:25:54;;;;;;;37.57;14.87;;;;;;;23.29;64.03;100074.88;12205778;19;20015;-78
2023/09/29 15:29:56;;;;;;;36.93;14.43;;;;;;;23.13;64.33;100074.50;12207283;19;20025;-79
2023/09/29 15:33:58;;;;;;;37.55;16.00;;;;;;;22.92;65.89;100085.47;12185870;19;20513;-77
2023/09/29 15:38:00;;;;;;;42.28;16.08;;;;;;;22.79;65.72;100080.81;12200137;19;20054;-79
2023/09/29 15:42:02;;;;;;;36.10;15.38;;;;;;;22.66;66.81;100088.19;12207169;19;20014;-78
2023/09/29 15:46:11;;;;;;;38.90;15.85;;;;;;;22.58;67.56;100086.19;12183938;19;20014;-79
2023/09/29 15:50:13;;;;;;;40.97;15.40;;;;;;;22.49;67.27;100090.94;12201777;19;20083;-80
2023/09/29 15:54:15;;;;;;;41.28;15.88;;;;;;;22.40;67.83;100090.03;12181665;19;20022;-79
2023/09/29 15:58:16;;;;;;;39.87;15.93;;;;;;;22.32;67.99;100093.66;12205964;19;20606;-79
2023/09/29 16:02:18;;;;;;;37.30;14.93;;;;;;;22.26;67.97;100093.78;12199433;19;20054;-79
2023/09/29 16:06:28;;;;;;;43.72;16.63;;;;;;;22.16;69.07;100096.84;12183762;19;20010;-78
2023/09/29 16:10:30;;;;;;;37.13;15.60;;;;;;;22.06;69.72;100106.31;12208438;19;20028;-78
2023/09/29 16:14:31;;;;;;;42.83;14.90;;;;;;;21.94;70.36;100119.28;12203980;19;20010;-78
2023/09/29 16:18:34;;;;;;;44.07;15.60;;;;;;;21.81;70.90;100121.81;12189189;19;20015;-78
2023/09/29 16:22:37;;;;;;;35.25;14.68;;;;;;;21.72;71.45;100123.72;12208186;19;20022;-78
2023/09/29 16:26:39;;;;;;;33.63;13.50;;;;;;;21.66;71.77;100127.81;12202085;19;20114;-78
2023/09/29 16:30:42;;;;;;;37.03;12.90;;;;;;;21.64;72.00;100118.88;12184925;19;20010;-78
2023/09/29 16:34:43;;;;;;;;;;;;;;;21.59;72.48;100128.25;12208145;19;20065;-78
2023/09/29 16:38:45;;;;;;;34.08;11.77;;;;;;;21.54;72.90;100135.94;12210773;19;19991;-79
2023/09/29 16:42:47;;;;;;;32.63;10.97;;;;;;;21.44;73.56;100133.34;12190703;19;20058;-78
2023/09/29 16:46:49;;;;;;;26.50;10.17;;;;;;;21.36;74.18;100135.78;12210363;19;20018;-79
2023/09/29 16:50:51;;;;;;;30.88;10.70;;;;;;;21.27;75.34;100153.63;12208982;19;20009;-79
2023/09/29 16:54:53;;;;;;;33.47;11.90;;;;;;;21.15;75.71;100154.13;12192983;19;20401;-80
2023/09/29 16:58:56;;;;;;;26.20;10.77;;;;;;;21.03;76.77;100157.47;12211244;19;20045;-79
2023/09/29 17:02:58;;;;;;;27.48;10.57;;;;;;;20.87;77.97;100170.94;12210146;19;20086;-79
2023/09/29 17:07:00;;;;;;;23.83;9.25;;;;;;;20.76;78.49;100172.25;12185879;19;21252;-78
2023/09/29 17:11:15;;;;;;;33.47;11.37;;;;;;;20.67;79.91;100182.50;12207990;19;20017;-79
2023/09/29 17:15:17;;;;;;;24.77;9.85;;;;;;;20.61;80.15;100178.13;12187877;19;19995;-78
2023/09/29 17:19:19;;;;;;;25.35;9.57;;;;;;;20.54;81.09;100197.31;12209150;19;20018;-78
2023/09/29 17:23:22;;;;;;;23.30;8.57;;;;;;;20.44;82.18;100204.72;12207049;19;20002;-79
2023/09/29 17:27:24;;;;;;;24.10;9.15;;;;;;;20.40;82.79;100211.22;12183044;19;20070;-78
2023/09/29 17:31:25;;;;;;;25.87;9.57;;;;;;;20.34;84.13;100204.88;12206219;19;20030;-79
2023/09/29 17:35:30;;;;;;;33.90;10.63;;;;;;;20.30;84.83;100205.81;12208033;19;20013;-80
2023/09/29 17:39:32;;;;;;;27.83;9.77;;;;;;;20.23;86.09;100217.41;12185664;19;20010;-80
2023/09/29 17:43:34;;;;;;;31.20;9.40;;;;;;;20.14;86.87;100217.25;12204788;19;20030;-80
2023/09/29 17:47:35;;;;;;;24.70;9.23;;;;;;;20.08;87.22;100200.84;12206682;19;20476;-80
2023/09/29 17:51:37;;;;;;;21.38;8.50;;;;;;;19.99;88.32;100203.53;12184766;19;20014;-79
2023/09/29 17:55:40;;;;;;;19.97;7.80;;;;;;;19.90;90.46;100208.09;12206993;19;20013;-80
2023/09/29 17:59:41;;;;;;;22.52;8.73;;;;;;;19.87;90.38;100209.56;12202840;19;20255;-80
2023/09/29 18:03:45;;;;;;;23.17;7.95;;;;;;;19.84;91.47;100218.56;12195325;19;20007;-80
2023/09/29 18:07:47;;;;;;;19.25;7.60;;;;;;;19.79;92.54;100216.66;12219721;19;20009;-80
2023/09/29 18:11:49;;;;;;;25.47;8.63;;;;;;;19.73;93.59;100219.84;12214717;19;21280;-81
2023/09/29 18:15:53;;;;;;;20.37;8.20;;;;;;;19.64;94.33;100225.22;12196138;19;20031;-81
2023/09/29 18:19:55;;;;;;;15.50;6.18;;;;;;;19.62;94.84;100244.25;12217447;19;20002;-81
2023/09/29 18:23:59;;;;;;;25.23;7.57;;;;;;;19.58;96.32;100246.81;12219384;19;20145;-80
2023/09/29 18:28:01;;;;;;;15.85;5.68;;;;;;;19.63;96.64;100253.47;12192854;19;20007;-80
2023/09/29 18:32:03;;;;;;;16.33;5.15;;;;;;;19.64;96.43;100257.94;12214344;19;20017;-81
2023/09/29 18:36:06;;;;;;;15.07;5.43;;;;;;;19.59;97.56;100258.84;12218664;19;20010;-80